Time;durP1;ratioP1;P1;durP2;ratioP2;P2;SDS_P1;SDS_P2;PMS_P1;PMS_P2;Temp;Humidity;BMP_temperature;BMP_pressure;BME280_temperature;BME280_humidity;BME280_pressure;Samples;Min_cycle;Max_cycle;Signal;HPM_P1;HPM_P2
2023/04/04 00:00:58;;;;;;;3.30;3.00;;;;;;;6.54;40.39;99603.28;7082032;27;20210;-76
2023/04/04 00:04:20;;;;;;;4.80;3.00;;;;;;;6.80;40.06;99619.31;7082836;27;20236;-77
2023/04/04 00:07:45;;;;;;;3.47;3.17;;;;;;;7.00;39.73;99610.00;7082674;27;20718;-76
2023/04/04 00:11:07;;;;;;;3.30;3.00;;;;;;;7.11;39.25;99602.50;7081477;27;20217;-76
2023/04/04 00:14:29;;;;;;;4.30;2.93;;;;;;;6.65;40.04;99600.34;7082244;27;20369;-76
2023/04/04 00:17:51;;;;;;;10.33;4.27;;;;;;;6.33;40.39;99600.19;7082209;27;20201;-77
2023/04/04 00:21:12;;;;;;;4.13;3.17;;;;;;;6.61;39.94;99590.09;7081294;27;20290;-76
2023/04/04 00:24:35;;;;;;;5.03;3.00;;;;;;;6.42;40.32;99601.91;7081975;27;20227;-76
2023/04/04 00:27:59;;;;;;;3.70;3.20;;;;;;;5.65;41.22;99608.22;7081111;27;20646;-77
2023/04/04 00:31:21;;;;;;;5.90;3.37;;;;;;;5.95;40.94;99589.91;7080872;27;20260;-77
2023/04/04 00:34:42;;;;;;;3.67;3.37;;;;;;;6.14;40.87;99599.56;7081796;27;20290;-77
2023/04/04 00:38:04;;;;;;;3.83;3.30;;;;;;;6.58;39.92;99593.94;7081711;27;20780;-77
2023/04/04 00:41:27;;;;;;;3.87;2.80;;;;;;;6.71;39.80;99590.84;7080676;27;20209;-76
2023/04/04 00:44:48;;;;;;;3.47;3.17;;;;;;;6.45;40.26;99584.66;7081371;27;20310;-77
2023/04/04 00:48:10;;;;;;;5.40;3.20;;;;;;;6.33;40.52;99592.16;7081607;27;20615;-76
2023/04/04 00:51:31;;;;;;;4.27;2.87;;;;;;;6.23;40.92;99585.22;7080511;27;20303;-76
2023/04/04 00:54:54;;;;;;;3.30;3.00;;;;;;;6.35;40.71;99587.47;7081003;27;20252;-77
2023/04/04 00:58:18;;;;;;;4.33;3.03;;;;;;;5.90;41.21;99552.06;7081366;27;20256;-77
2023/04/04 01:01:39;;;;;;;7.37;3.43;;;;;;;6.16;40.56;99578.81;7080830;27;20214;-77
2023/04/04 01:05:02;;;;;;;3.47;3.00;;;;;;;6.37;40.63;99569.41;7080907;27;20691;-77
2023/04/04 01:08:26;;;;;;;4.17;3.10;;;;;;;6.39;40.42;99574.59;7081138;27;20200;-77
2023/04/04 01:11:47;;;;;;;3.93;3.53;;;;;;;6.29;40.32;99574.72;7080134;27;20209;-76
2023/04/04 01:15:11;;;;;;;4.23;3.33;;;;;;;6.23;40.64;99579.84;7075211;27;21152;-76
2023/04/04 01:18:34;;;;;;;3.30;3.00;;;;;;;5.88;40.98;99574.63;7080794;27;20274;-77
2023/04/04 01:21:56;;;;;;;4.20;3.80;;;;;;;6.16;40.70;99568.13;7080141;27;20786;-76
2023/04/04 01:25:19;;;;;;;5.13;4.00;;;;;;;6.09;41.00;99575.09;7080467;27;20220;-76
2023/04/04 01:28:42;;;;;;;3.90;3.47;;;;;;;5.75;41.62;99576.84;7079119;27;20657;-77
2023/04/04 01:32:07;;;;;;;6.83;3.83;;;;;;;5.88;41.53;99563.91;7079556;27;20209;-76
2023/04/04 01:35:31;;;;;;;4.63;3.30;;;;;;;5.63;42.29;99576.25;7080206;27;20538;-76
2023/04/04 01:38:54;;;;;;;3.77;3.40;;;;;;;5.99;41.75;99559.16;7080145;27;20262;-76
2023/04/04 01:42:18;;;;;;;3.90;3.10;;;;;;;5.90;41.55;99568.13;7079651;27;20299;-76
2023/04/04 01:45:41;;;;;;;3.57;3.23;;;;;;;5.19;42.68;99512.22;7080657;27;20558;-76
2023/04/04 01:49:03;;;;;;;3.50;3.20;;;;;;;5.66;42.30;99564.41;7079928;27;20207;-75
2023/04/04 01:52:24;;;;;;;6.23;3.93;;;;;;;5.74;42.17;99562.63;7078973;27;20225;-76
2023/04/04 01:55:46;;;;;;;3.43;2.93;;;;;;;5.52;42.58;99568.47;7080401;27;20229;-78
2023/04/04 01:59:07;;;;;;;3.77;3.47;;;;;;;5.26;43.00;99572.09;7080081;28;20719;-77
2023/04/04 02:02:30;;;;;;;3.50;3.20;;;;;;;4.70;44.35;99574.16;7079819;28;20593;-78
2023/04/04 02:05:52;;;;;;;3.70;3.40;;;;;;;5.19;43.53;99579.88;7080080;28;20257;-77
2023/04/04 02:09:14;;;;;;;3.70;3.40;;;;;;;5.60;42.77;99559.69;7083808;27;20583;-76
2023/04/04 02:12:35;;;;;;;3.67;3.33;;;;;;;5.37;43.42;99564.66;7085242;27;20257;-77
2023/04/04 02:15:57;;;;;;;3.10;2.87;;;;;;;5.58;43.09;99567.00;7085632;27;20224;-76
2023/04/04 02:19:20;;;;;;;6.47;3.90;;;;;;;5.33;43.98;99567.81;7085193;27;20207;-77
2023/04/04 02:22:41;;;;;;;4.03;3.63;;;;;;;5.16;44.43;99550.78;7085080;27;20758;-76
2023/04/04 02:26:03;;;;;;;6.50;5.90;;;;;;;5.41;44.28;99557.16;7085657;27;20210;-77
2023/04/04 02:29:24;;;;;;;4.00;3.70;;;;;;;5.38;44.33;99561.03;7083632;27;20201;-77
2023/04/04 02:32:46;;;;;;;6.83;4.33;;;;;;;5.14;45.72;99570.63;7084828;27;20289;-76
2023/04/04 02:36:11;;;;;;;4.33;4.03;;;;;;;4.23;47.70;99575.22;7085031;27;20248;-77
2023/04/04 02:39:32;;;;;;;4.10;3.80;;;;;;;4.51;47.61;99571.59;7084854;27;20196;-76
2023/04/04 02:42:54;;;;;;;4.20;3.90;;;;;;;4.56;47.07;99570.19;7084999;27;20648;-76
2023/04/04 02:46:15;;;;;;;4.70;4.30;;;;;;;4.87;46.51;99578.69;7084970;27;20870;-77
2023/04/04 02:49:37;;;;;;;4.27;3.67;;;;;;;4.72;46.98;99573.03;7084449;27;20206;-77
2023/04/04 02:53:03;;;;;;;4.43;4.03;;;;;;;4.80;47.05;99580.28;7084107;27;20229;-76
2023/04/04 02:56:25;;;;;;;4.63;4.13;;;;;;;4.63;47.14;99573.06;7084393;27;20729;-76
2023/04/04 02:59:46;;;;;;;4.27;3.97;;;;;;;4.73;46.80;99574.69;7083676;27;20246;-76
2023/04/04 03:03:08;;;;;;;4.17;3.87;;;;;;;4.56;46.83;99570.19;7084018;27;20683;-76
2023/04/04 03:06:31;;;;;;;5.77;3.60;;;;;;;4.66;46.36;99572.78;7084177;27;20209;-76
2023/04/04 03:09:54;;;;;;;4.00;3.70;;;;;;;4.77;45.91;99559.25;7083632;27;20366;-76
2023/04/04 03:13:16;;;;;;;4.43;4.00;;;;;;;4.60;45.68;99534.16;7083853;27;20232;-76
2023/04/04 03:16:38;;;;;;;7.90;4.77;;;;;;;4.11;47.97;99547.06;7068438;27;20649;-76
2023/04/04 03:20:00;;;;;;;4.63;4.23;;;;;;;4.23;48.07;99554.72;7054636;28;20231;-76
2023/04/04 03:23:21;;;;;;;7.00;4.30;;;;;;;4.63;46.91;99560.56;7055305;28;20318;-76
2023/04/04 03:26:44;;;;;;;8.17;5.47;;;;;;;4.59;47.24;99563.66;7055222;28;20270;-76
2023/04/04 03:30:07;;;;;;;4.47;4.07;;;;;;;4.15;48.30;99567.13;7054686;28;20239;-77
2023/04/04 03:33:29;;;;;;;5.03;4.57;;;;;;;4.58;46.54;99562.84;7055119;28;20222;-77
2023/04/04 03:36:52;;;;;;;4.80;4.30;;;;;;;4.22;47.53;99562.88;7054918;28;20236;-77
2023/04/04 03:40:14;;;;;;;5.30;4.80;;;;;;;4.37;47.23;99559.56;7054954;28;20213;-77
2023/04/04 03:43:36;;;;;;;6.17;4.60;;;;;;;4.42;47.29;99553.81;7055792;28;20586;-77
2023/04/04 03:46:58;;;;;;;4.80;4.40;;;;;;;4.46;46.35;99568.53;7054765;28;20261;-76
2023/04/04 03:50:19;;;;;;;6.20;4.83;;;;;;;3.66;48.50;99567.41;7054676;28;20204;-77
2023/04/04 03:53:41;;;;;;;4.87;4.47;;;;;;;4.14;47.42;99563.59;7055226;28;20666;-77
2023/04/04 03:57:03;;;;;;;5.27;4.77;;;;;;;4.07;48.09;99573.19;7055069;28;20315;-77
2023/04/04 04:00:26;;;;;;;4.90;4.50;;;;;;;4.27;46.92;99574.81;7053774;28;20252;-77
2023/04/04 04:03:47;;;;;;;7.97;5.20;;;;;;;3.97;47.27;99575.06;7079650;27;20232;-77
2023/04/04 04:07:08;;;;;;;5.60;5.10;;;;;;;4.04;47.08;99569.97;7059624;27;20203;-77
2023/04/04 04:10:30;;;;;;;7.23;4.43;;;;;;;3.88;47.58;99559.06;7053406;28;20209;-77
2023/04/04 04:13:51;;;;;;;9.07;4.47;;;;;;;4.13;46.77;99564.59;7053736;28;20230;-77
2023/04/04 04:17:14;;;;;;;4.93;4.50;;;;;;;4.00;47.54;99566.75;7053321;28;20225;-76
2023/04/04 04:20:36;;;;;;;5.33;4.83;;;;;;;3.83;47.91;99572.84;7053329;28;20205;-77
2023/04/04 04:23:57;;;;;;;4.63;4.27;;;;;;;3.82;47.66;99565.81;7053702;28;20281;-76
2023/04/04 04:27:19;;;;;;;4.23;3.87;;;;;;;3.93;47.24;99567.47;7063660;28;20256;-76
2023/04/04 04:30:40;;;;;;;4.47;4.07;;;;;;;4.14;46.11;99563.59;7053031;28;20257;-76
2023/04/04 04:34:06;;;;;;;5.67;4.00;;;;;;;4.40;45.03;99558.44;7054375;28;20278;-76
2023/04/04 04:37:27;;;;;;;4.43;3.90;;;;;;;4.32;45.43;99558.34;7075472;27;20705;-75
2023/04/04 04:40:49;;;;;;;4.17;3.77;;;;;;;4.14;45.53;99560.94;7069849;27;20247;-77
2023/04/04 04:44:10;;;;;;;4.27;3.83;;;;;;;4.39;44.99;99568.28;7075058;27;20346;-76
2023/04/04 04:47:32;;;;;;;5.43;4.80;;;;;;;4.65;43.97;99571.94;7066878;27;20208;-75
2023/04/04 04:50:55;;;;;;;8.63;5.17;;;;;;;4.45;44.91;99559.69;7065325;27;20208;-77
2023/04/04 04:54:16;;;;;;;6.50;5.73;;;;;;;4.35;45.45;99571.38;7059469;27;20253;-75
2023/04/04 04:57:38;;;;;;;6.77;5.70;;;;;;;4.26;45.45;99566.94;7065787;27;20283;-77
2023/04/04 05:01:00;;;;;;;6.07;4.97;;;;;;;3.97;47.20;99561.72;7076119;27;20287;-74
2023/04/04 05:04:21;;;;;;;5.93;5.43;;;;;;;4.15;47.04;99577.81;7051369;28;20224;-76
2023/04/04 05:07:46;;;;;;;7.37;5.57;;;;;;;3.85;47.92;99584.22;7061401;27;20650;-74
2023/04/04 05:11:07;;;;;;;6.77;5.27;;;;;;;3.83;47.31;99580.84;7080347;27;20256;-75
2023/04/04 05:14:29;;;;;;;7.07;4.70;;;;;;;4.01;46.83;99584.44;7080374;27;20227;-75
2023/04/04 05:17:51;;;;;;;5.03;4.53;;;;;;;3.65;48.28;99581.75;7079247;27;20208;-75
2023/04/04 05:21:12;;;;;;;6.00;5.50;;;;;;;3.61;49.01;99569.66;7079561;27;20227;-75
2023/04/04 05:24:35;;;;;;;5.67;5.20;;;;;;;3.70;47.62;99577.66;7079302;27;20232;-75
2023/04/04 05:27:57;;;;;;;8.70;5.60;;;;;;;3.51;48.83;99583.00;7080173;27;20223;-75
2023/04/04 05:31:18;;;;;;;7.70;6.10;;;;;;;3.59;48.06;99575.13;7078831;27;20204;-75
2023/04/04 05:34:40;;;;;;;8.87;5.73;;;;;;;3.71;48.32;99579.31;7079729;27;20697;-75
2023/04/04 05:38:01;;;;;;;7.03;5.73;;;;;;;3.66;48.24;99594.91;7072375;27;20885;-75
2023/04/04 05:41:24;;;;;;;7.73;5.37;;;;;;;3.80;47.63;99591.81;7050380;28;20254;-74
2023/04/04 05:44:46;;;;;;;6.97;5.23;;;;;;;4.04;47.25;99575.31;7076389;27;20219;-75
2023/04/04 05:48:07;;;;;;;7.37;5.47;;;;;;;4.60;47.85;99595.56;7079520;27;20712;-75
2023/04/04 05:51:29;;;;;;;7.30;6.57;;;;;;;3.95;46.95;99594.88;7079388;27;20533;-75
2023/04/04 05:54:51;;;;;;;9.60;7.47;;;;;;;4.39;47.56;99602.16;7070967;27;20597;-76
2023/04/04 05:58:13;;;;;;;8.67;6.20;;;;;;;4.94;45.96;99591.31;7063472;28;20216;-75
2023/04/04 06:01:35;;;;;;;10.63;6.43;;;;;;;5.37;44.95;99582.56;7079008;28;20212;-76
2023/04/04 06:04:56;;;;;;;6.20;5.60;;;;;;;5.82;43.73;99584.13;7079746;28;20252;-76
2023/04/04 06:08:18;;;;;;;6.87;4.40;;;;;;;6.95;41.07;99585.56;7079933;28;20204;-76
2023/04/04 06:11:40;;;;;;;3.77;3.47;;;;;;;7.57;37.93;99574.22;7078025;28;20203;-76
2023/04/04 06:15:03;;;;;;;4.40;3.77;;;;;;;7.23;37.44;99554.75;7074860;28;20249;-77
2023/04/04 06:18:24;;;;;;;4.10;3.73;;;;;;;7.31;37.90;99581.59;7051315;28;20202;-76
2023/04/04 06:21:46;;;;;;;4.47;3.80;;;;;;;7.25;38.46;99583.09;7050828;28;20221;-77
2023/04/04 06:25:09;;;;;;;4.80;3.50;;;;;;;7.93;37.42;99571.03;7061197;28;20219;-76
2023/04/04 06:28:30;;;;;;;7.03;3.90;;;;;;;7.85;36.06;99580.94;7078962;28;20207;-76
2023/04/04 06:31:53;;;;;;;3.90;3.60;;;;;;;7.72;36.76;99564.50;7078786;28;20208;-75
2023/04/04 06:35:15;;;;;;;4.23;3.63;;;;;;;6.52;38.00;99570.47;7079508;28;20468;-76
2023/04/04 06:38:36;;;;;;;4.00;3.60;;;;;;;7.13;37.46;99562.94;7079594;28;20259;-76
2023/04/04 06:41:58;;;;;;;4.00;3.60;;;;;;;7.80;36.42;99572.56;7078912;28;20237;-75
2023/04/04 06:45:19;;;;;;;4.30;3.90;;;;;;;8.24;35.42;99581.94;7078802;28;20224;-77
2023/04/04 06:48:42;;;;;;;4.20;3.80;;;;;;;7.11;37.92;99573.00;7080005;28;20578;-77
2023/04/04 06:52:04;;;;;;;5.13;3.90;;;;;;;7.38;37.01;99575.38;7075127;27;20256;-78
2023/04/04 06:55:27;;;;;;;5.57;4.20;;;;;;;7.20;36.71;99563.16;7111602;27;20370;-78
2023/04/04 06:58:49;;;;;;;3.90;3.60;;;;;;;7.68;36.77;99564.00;7087846;27;20207;-78
2023/04/04 07:02:11;;;;;;;5.20;3.83;;;;;;;8.22;34.78;99559.75;7083142;27;20219;-76
2023/04/04 07:05:38;;;;;;;5.60;3.87;;;;;;;6.64;36.83;99530.81;7084041;27;20267;-76
2023/04/04 07:08:59;;;;;;;5.70;4.00;;;;;;;7.71;36.58;99577.09;7092138;27;20276;-78
2023/04/04 07:12:21;;;;;;;4.07;3.60;;;;;;;8.57;34.94;99570.91;7111597;27;20202;-77
2023/04/04 07:15:47;;;;;;;5.70;3.40;;;;;;;8.61;35.36;99560.63;7111789;27;20620;-77
2023/04/04 07:19:09;;;;;;;4.63;3.83;;;;;;;7.81;35.76;99574.22;7111956;27;20189;-77
2023/04/04 07:22:31;;;;;;;5.60;4.03;;;;;;;8.13;35.88;99566.97;7111333;27;20248;-77
2023/04/04 07:25:53;;;;;;;5.37;3.57;;;;;;;8.24;33.67;99569.31;7111926;27;20206;-77
2023/04/04 07:29:15;;;;;;;4.10;3.50;;;;;;;8.24;34.00;99582.75;7111779;27;20262;-77
2023/04/04 07:32:36;;;;;;;5.83;3.73;;;;;;;8.99;34.23;99566.81;7110769;27;20227;-78
2023/04/04 07:35:58;;;;;;;5.50;3.93;;;;;;;9.17;32.04;99563.88;7111595;27;20269;-77
2023/04/04 07:39:22;;;;;;;5.23;3.50;;;;;;;10.04;31.24;99569.59;7111130;27;20199;-77
2023/04/04 07:42:44;;;;;;;3.47;3.17;;;;;;;9.35;32.52;99559.88;7110845;27;20254;-77
2023/04/04 07:46:06;;;;;;;3.93;3.33;;;;;;;9.41;32.62;99575.31;7111743;27;20206;-76
2023/04/04 07:49:28;;;;;;;4.83;3.20;;;;;;;10.31;31.46;99547.41;7111566;27;20566;-77
2023/04/04 07:52:53;;;;;;;5.97;3.70;;;;;;;10.09;30.84;99549.16;7110421;27;20317;-78
2023/04/04 07:56:15;;;;;;;5.70;3.43;;;;;;;9.70;31.36;99561.94;7111474;27;20305;-77
2023/04/04 07:59:37;;;;;;;3.73;3.33;;;;;;;9.36;32.33;99574.16;7110299;27;20211;-77
2023/04/04 08:03:00;;;;;;;4.97;3.23;;;;;;;10.07;29.75;99563.81;7110736;27;20233;-77
2023/04/04 08:06:21;;;;;;;3.83;3.10;;;;;;;10.19;31.34;99557.81;7110067;27;20662;-76
2023/04/04 08:09:43;;;;;;;3.13;2.83;;;;;;;8.29;32.72;99552.69;7110291;27;20203;-77
2023/04/04 08:13:07;;;;;;;5.97;3.17;;;;;;;8.99;32.22;99560.63;7111068;27;20347;-77
2023/04/04 08:16:29;;;;;;;5.03;3.40;;;;;;;8.34;33.39;99561.06;7110752;27;20971;-77
2023/04/04 08:19:50;;;;;;;4.00;3.63;;;;;;;9.70;32.68;99548.47;7109842;27;20238;-79
2023/04/04 08:23:12;;;;;;;5.97;4.00;;;;;;;10.38;30.47;99551.88;7110423;27;20313;-77
2023/04/04 08:26:34;;;;;;;6.30;3.83;;;;;;;9.02;31.26;99551.34;7110601;27;20204;-77
2023/04/04 08:29:57;;;;;;;6.27;3.27;;;;;;;8.46;33.67;99555.16;7109923;27;20206;-76
2023/04/04 08:33:18;;;;;;;6.30;3.67;;;;;;;10.34;31.81;99537.09;7110131;27;20235;-77
2023/04/04 08:36:40;;;;;;;6.30;3.17;;;;;;;9.95;30.66;99551.78;7102129;27;20226;-77
2023/04/04 08:40:02;;;;;;;3.80;3.50;;;;;;;10.01;29.97;99551.06;7081206;27;20348;-77
2023/04/04 08:43:24;;;;;;;4.77;3.50;;;;;;;9.28;31.74;99558.09;7081355;27;20227;-77
2023/04/04 08:46:49;;;;;;;4.93;3.23;;;;;;;10.19;30.33;99535.41;7081959;27;20622;-77
2023/04/04 08:50:11;;;;;;;3.60;3.30;;;;;;;9.49;31.41;99560.94;7080324;27;20210;-77
2023/04/04 08:53:33;;;;;;;4.00;3.60;;;;;;;8.35;32.89;99546.63;7080386;27;20292;-77
2023/04/04 08:56:54;;;;;;;3.60;3.30;;;;;;;9.77;31.01;99533.28;7081500;27;20264;-77
2023/04/04 09:00:16;;;;;;;3.77;3.03;;;;;;;9.37;30.89;99555.16;7080520;27;20670;-77
2023/04/04 09:03:40;;;;;;;3.13;2.90;;;;;;;10.92;30.01;99550.53;7080962;27;20275;-78
2023/04/04 09:07:03;;;;;;;3.50;3.13;;;;;;;11.23;28.59;99550.25;7081047;27;20621;-77
2023/04/04 09:10:26;;;;;;;4.97;3.40;;;;;;;8.87;32.21;99550.44;7080291;27;20568;-76
2023/04/04 09:13:49;;;;;;;3.50;3.20;;;;;;;9.19;31.34;99535.78;7077297;27;20224;-77
2023/04/04 09:17:12;;;;;;;3.30;3.00;;;;;;;8.66;33.03;99552.91;7052054;28;20228;-76
2023/04/04 09:20:42;;;;;;;4.93;3.40;;;;;;;9.29;32.63;99547.16;7051627;28;20216;-76
2023/04/04 09:24:04;;;;;;;4.00;3.17;;;;;;;11.48;30.17;99536.19;7051934;28;20896;-76
2023/04/04 09:27:26;;;;;;;4.57;3.30;;;;;;;12.35;26.94;99534.84;7051717;28;20204;-77
2023/04/04 09:30:48;;;;;;;3.50;3.20;;;;;;;12.34;27.73;99535.88;7051611;28;20257;-76
2023/04/04 09:34:10;;;;;;;3.00;2.73;;;;;;;11.95;28.45;99530.19;7051612;28;20576;-78
2023/04/04 09:37:33;;;;;;;3.43;3.13;;;;;;;11.32;27.51;99549.09;7059300;27;20307;-77
2023/04/04 09:40:55;;;;;;;4.37;3.53;;;;;;;10.85;29.29;99538.81;7079257;27;20207;-76
2023/04/04 09:44:16;;;;;;;8.70;3.10;;;;;;;11.34;28.68;99541.66;7078664;27;20741;-76
2023/04/04 09:47:41;;;;;;;5.70;3.50;;;;;;;10.60;30.15;99544.69;7080087;27;20199;-77
2023/04/04 09:51:04;;;;;;;3.60;3.30;;;;;;;10.14;30.77;99537.81;7078952;27;20212;-76
2023/04/04 09:54:27;;;;;;;5.03;3.57;;;;;;;10.67;28.47;99537.53;7079326;27;20361;-77
2023/04/04 09:57:49;;;;;;;3.93;3.27;;;;;;;11.22;28.30;99545.91;7076682;27;20629;-78
2023/04/04 10:01:10;;;;;;;4.53;3.70;;;;;;;10.73;28.71;99551.13;7065168;28;20332;-76
2023/04/04 10:04:35;;;;;;;5.17;3.00;;;;;;;11.66;26.51;99538.47;7070576;28;20223;-78
2023/04/04 10:07:57;;;;;;;4.23;3.10;;;;;;;12.33;27.75;99531.53;7073718;28;20197;-78
2023/04/04 10:11:31;;;;;;;4.97;3.20;;;;;;;13.22;26.38;99529.44;7078921;28;20207;-81
2023/04/04 10:14:56;;;;;;;4.27;3.13;;;;;;;12.89;26.93;99527.63;7079932;28;20223;-78
2023/04/04 10:18:18;;;;;;;4.60;3.50;;;;;;;12.68;25.57;99541.28;7079907;28;20214;-77
2023/04/04 10:21:40;;;;;;;3.43;3.10;;;;;;;11.05;27.14;99529.06;7078189;28;20290;-78
2023/04/04 10:25:03;;;;;;;3.70;3.27;;;;;;;11.51;28.29;99525.00;7079664;28;20230;-77
2023/04/04 10:28:27;;;;;;;7.03;3.10;;;;;;;12.55;27.43;99535.78;7080729;27;20204;-78
2023/04/04 10:31:51;;;;;;;4.33;3.00;;;;;;;12.29;27.21;99522.13;7084251;27;20250;-76
2023/04/04 10:35:13;;;;;;;3.53;3.23;;;;;;;12.37;26.63;99521.94;7085091;27;20314;-78
2023/04/04 10:38:41;;;;;;;3.20;2.87;;;;;;;12.73;26.58;99527.97;7084614;27;20231;-78
2023/04/04 10:42:05;;;;;;;4.03;3.47;;;;;;;13.00;26.29;99514.41;7084721;27;20237;-81
2023/04/04 10:45:28;;;;;;;3.57;2.93;;;;;;;12.85;23.96;99520.94;7084525;27;20798;-77
2023/04/04 10:48:50;;;;;;;4.00;3.23;;;;;;;12.07;26.49;99498.88;7084575;27;20201;-78
2023/04/04 10:52:13;;;;;;;4.17;3.30;;;;;;;13.46;26.06;99503.66;7082970;27;20268;-79
2023/04/04 10:55:35;;;;;;;5.67;3.50;;;;;;;13.22;25.35;99496.13;7084480;27;20215;-77
2023/04/04 10:59:10;;;;;;;3.80;3.27;;;;;;;13.20;25.79;99500.88;7084390;27;20227;-78
2023/04/04 11:03:00;;;;;;;3.63;3.00;;;;;;;11.58;26.97;99514.25;7083134;27;20226;-78
2023/04/04 11:06:23;;;;;;;3.40;3.10;;;;;;;12.22;27.47;99500.44;7023934;27;20204;-77
2023/04/04 11:09:55;;;;;;;4.03;3.50;;;;;;;13.59;25.32;99490.13;7083607;27;20211;-79
2023/04/04 11:13:17;;;;;;;3.43;3.10;;;;;;;13.96;24.58;99492.19;7084124;27;20230;-77
2023/04/04 11:16:44;;;;;;;3.47;3.10;;;;;;;12.70;25.45;99488.63;7063109;27;20226;-78
2023/04/04 11:20:08;;;;;;;4.57;3.27;;;;;;;12.41;26.83;99490.78;7055006;28;20672;-78
2023/04/04 11:23:39;;;;;;;4.00;2.80;;;;;;;12.45;24.33;99508.28;7052883;28;20700;-78
2023/04/04 11:27:00;;;;;;;5.87;3.47;;;;;;;11.70;25.95;99501.94;7053059;28;20193;-78
2023/04/04 11:30:22;;;;;;;4.00;3.60;;;;;;;12.83;26.79;99474.31;7051943;28;20264;-79
2023/04/04 11:33:55;;;;;;;4.87;3.10;;;;;;;13.46;24.32;99476.56;7053024;28;20225;-78
2023/04/04 11:37:18;;;;;;;3.00;2.70;;;;;;;13.92;24.78;99477.41;7053973;28;20205;-78
2023/04/04 11:40:40;;;;;;;4.53;3.13;;;;;;;14.68;23.98;99471.22;7053856;28;20209;-78
2023/04/04 11:44:08;;;;;;;4.97;3.37;;;;;;;13.23;24.29;99473.41;7054873;28;20695;-80
2023/04/04 11:47:30;;;;;;;3.60;3.30;;;;;;;13.48;25.78;99469.06;7054919;28;20188;-77
2023/04/04 11:50:53;;;;;;;5.37;3.80;;;;;;;13.63;27.19;99475.13;7053849;28;20216;-78
2023/04/04 11:54:16;;;;;;;3.20;2.87;;;;;;;13.24;26.29;99458.84;7055179;28;20230;-80
2023/04/04 11:57:42;;;;;;;4.17;3.17;;;;;;;13.88;25.39;99459.88;7054522;28;20390;-77
2023/04/04 12:01:04;;;;;;;3.67;2.87;;;;;;;13.28;26.46;99465.50;7054216;28;20195;-79
2023/04/04 12:04:26;;;;;;;4.43;3.37;;;;;;;14.40;23.68;99444.34;7058199;28;20693;-84
2023/04/04 12:07:48;;;;;;;3.40;3.10;;;;;;;15.03;23.13;99432.56;7059768;28;20230;-79
2023/04/04 12:11:17;;;;;;;3.70;3.13;;;;;;;13.84;23.61;99450.50;7053835;28;20207;-78
2023/04/04 12:14:40;;;;;;;5.07;3.10;;;;;;;14.20;24.69;99440.88;7054396;28;20223;-78
2023/04/04 12:18:02;;;;;;;4.43;2.80;;;;;;;12.41;25.87;99452.91;7054448;28;20250;-78
2023/04/04 12:21:24;;;;;;;4.83;2.93;;;;;;;11.92;26.57;99458.47;7053024;28;20209;-78
2023/04/04 12:24:46;;;;;;;2.93;2.73;;;;;;;13.40;25.57;99444.91;7052943;28;20236;-79
2023/04/04 12:28:09;;;;;;;3.67;2.93;;;;;;;14.37;24.92;99441.25;7053874;28;20266;-78
2023/04/04 12:31:32;;;;;;;5.00;3.27;;;;;;;12.79;24.97;99440.56;7052858;28;20697;-77
2023/04/04 12:35:00;;;;;;;3.33;2.90;;;;;;;14.06;24.34;99422.97;7053085;28;20235;-79
2023/04/04 12:38:22;;;;;;;3.40;3.10;;;;;;;14.19;24.32;99424.81;7053356;28;20210;-77
2023/04/04 12:41:53;;;;;;;3.10;2.80;;;;;;;14.62;23.20;99431.34;7052199;28;20216;-77
2023/04/04 12:45:21;;;;;;;4.03;2.97;;;;;;;12.18;25.48;99437.00;7053288;28;20252;-77
2023/04/04 12:48:43;;;;;;;3.70;3.20;;;;;;;13.60;25.06;99424.03;7053203;28;20235;-77
2023/04/04 12:52:06;;;;;;;4.60;3.33;;;;;;;14.96;22.65;99415.50;7051844;28;20585;-79
2023/04/04 12:55:31;;;;;;;4.70;2.97;;;;;;;13.83;24.53;99417.16;7052829;28;20233;-77
2023/04/04 12:58:52;;;;;;;3.47;2.93;;;;;;;13.54;25.30;99409.47;7052824;28;20249;-79
2023/04/04 13:02:18;;;;;;;5.33;3.17;;;;;;;14.21;24.59;99406.47;7063993;27;20212;-77
2023/04/04 13:05:39;;;;;;;4.07;3.50;;;;;;;13.17;26.07;99414.66;7080751;27;20298;-79
2023/04/04 13:09:01;;;;;;;4.93;3.00;;;;;;;14.41;23.93;99399.94;7081201;27;20676;-77
2023/04/04 13:12:22;;;;;;;3.40;3.00;;;;;;;13.06;25.11;99397.16;7079794;27;20208;-76
2023/04/04 13:15:51;;;;;;;3.27;2.97;;;;;;;14.38;23.99;99389.50;7075472;27;20196;-77
2023/04/04 13:19:14;;;;;;;4.90;3.13;;;;;;;14.48;26.15;99389.03;7081824;27;20686;-78
2023/04/04 13:22:36;;;;;;;3.50;2.80;;;;;;;13.34;24.86;99369.88;7080102;27;20310;-77
2023/04/04 13:25:58;;;;;;;4.57;3.10;;;;;;;12.56;25.62;99369.78;7081090;27;20209;-79
2023/04/04 13:29:20;;;;;;;3.70;3.30;;;;;;;14.11;23.99;99371.59;7080760;27;20197;-78
2023/04/04 13:32:42;;;;;;;3.47;2.83;;;;;;;13.57;24.72;99381.13;7079659;27;20231;-78
2023/04/04 13:36:05;;;;;;;3.90;3.20;;;;;;;13.11;25.37;99370.28;7080930;27;20211;-77
2023/04/04 13:39:27;;;;;;;4.53;3.73;;;;;;;12.95;25.81;99372.53;7080328;27;20227;-77
2023/04/04 13:42:49;;;;;;;3.73;3.17;;;;;;;12.36;25.71;99379.66;7079895;27;20285;-77
2023/04/04 13:46:10;;;;;;;4.27;3.37;;;;;;;13.32;26.51;99375.50;7082959;27;20259;-79
2023/04/04 13:49:32;;;;;;;7.37;3.43;;;;;;;11.82;26.63;99367.97;7081450;27;20259;-77
2023/04/04 13:52:55;;;;;;;3.47;3.00;;;;;;;13.85;25.71;99373.56;7079374;27;20370;-77
2023/04/04 13:56:16;;;;;;;4.07;2.97;;;;;;;14.62;24.71;99344.50;7080656;27;20724;-78
2023/04/04 13:59:38;;;;;;;3.40;3.10;;;;;;;14.41;24.30;99361.09;7080906;28;20228;-78
2023/04/04 14:03:00;;;;;;;4.40;3.10;;;;;;;12.85;25.16;99359.41;7079776;27;20764;-77
2023/04/04 14:06:21;;;;;;;4.20;2.73;;;;;;;12.60;26.19;99366.44;7068114;28;20235;-78
2023/04/04 14:09:44;;;;;;;4.13;3.33;;;;;;;12.47;26.21;99360.16;7070434;28;20256;-79
2023/04/04 14:13:06;;;;;;;3.83;3.43;;;;;;;12.96;26.30;99350.72;7078992;28;20220;-77
2023/04/04 14:16:27;;;;;;;3.60;2.97;;;;;;;14.18;24.55;99350.75;7078995;28;20208;-80
2023/04/04 14:19:49;;;;;;;3.33;2.90;;;;;;;13.68;25.88;99346.09;7082135;28;20365;-80
2023/04/04 14:23:10;;;;;;;3.53;3.17;;;;;;;13.05;26.59;99327.81;7082631;28;20312;-78
2023/04/04 14:26:33;;;;;;;3.13;2.87;;;;;;;13.45;26.12;99348.41;7081737;28;20277;-79
2023/04/04 14:29:55;;;;;;;4.97;3.30;;;;;;;13.72;25.51;99347.34;7080390;28;20195;-78
2023/04/04 14:33:16;;;;;;;3.67;3.27;;;;;;;13.84;25.25;99348.34;7080082;28;20319;-78
2023/04/04 14:36:38;;;;;;;6.27;3.93;;;;;;;13.22;25.71;99358.84;7081942;28;20208;-79
2023/04/04 14:39:59;;;;;;;3.93;3.00;;;;;;;13.97;24.17;99336.63;7080076;28;20232;-78
2023/04/04 14:43:22;;;;;;;5.67;3.23;;;;;;;13.05;24.74;99349.47;7078538;28;20224;-77
2023/04/04 14:46:44;;;;;;;4.60;3.17;;;;;;;13.56;24.53;99347.78;7060484;28;20205;-79
2023/04/04 14:50:07;;;;;;;3.90;3.10;;;;;;;14.30;23.65;99340.91;7051303;28;20200;-77
2023/04/04 14:53:29;;;;;;;4.47;3.20;;;;;;;13.55;25.25;99340.69;7052100;28;20241;-78
2023/04/04 14:56:50;;;;;;;4.57;3.30;;;;;;;13.13;25.59;99341.16;7051826;28;20709;-78
2023/04/04 15:00:19;;;;;;;5.13;3.20;;;;;;;12.93;25.75;99339.44;7051787;28;20369;-78
2023/04/04 15:03:40;;;;;;;3.80;3.30;;;;;;;12.99;26.01;99319.69;7068856;28;20674;-79
2023/04/04 15:07:02;;;;;;;4.90;3.40;;;;;;;14.28;24.67;99294.16;7081109;28;20270;-78
2023/04/04 15:10:24;;;;;;;5.50;3.20;;;;;;;12.19;27.41;99335.94;7080501;28;20566;-77
2023/04/04 15:13:45;;;;;;;4.97;3.50;;;;;;;14.03;26.43;99314.06;7077072;28;20218;-79
2023/04/04 15:17:08;;;;;;;4.17;3.77;;;;;;;13.40;25.26;99328.44;7084833;27;20222;-78
2023/04/04 15:20:30;;;;;;;3.80;3.40;;;;;;;12.62;26.71;99342.72;7102990;27;20263;-83
2023/04/04 15:23:51;;;;;;;3.90;3.03;;;;;;;12.54;26.60;99336.66;7092660;27;20251;-81
2023/04/04 15:27:14;;;;;;;3.47;3.17;;;;;;;12.12;27.34;99339.66;7088873;27;20294;-84
2023/04/04 15:30:35;;;;;;;3.90;3.10;;;;;;;12.48;25.99;99341.03;7090476;27;20208;-80
2023/04/04 15:33:59;;;;;;;3.80;3.40;;;;;;;12.28;26.76;99306.84;7084568;27;20216;-78
2023/04/04 15:37:21;;;;;;;3.70;3.10;;;;;;;13.23;26.09;99341.53;7059942;28;20208;-79
2023/04/04 15:40:42;;;;;;;3.33;3.00;;;;;;;13.25;25.98;99339.47;7059928;28;20247;-79
2023/04/04 15:44:04;;;;;;;5.17;3.53;;;;;;;13.86;26.39;99321.84;7060757;28;20710;-79
2023/04/04 15:47:25;;;;;;;4.23;3.07;;;;;;;13.23;25.95;99338.03;7059456;28;20213;-76
2023/04/04 15:50:48;;;;;;;4.13;3.53;;;;;;;12.48;26.46;99338.31;7056329;28;20290;-78
2023/04/04 15:54:10;;;;;;;5.93;3.40;;;;;;;11.52;28.62;99336.81;7053940;28;20314;-78
2023/04/04 15:57:31;;;;;;;3.33;2.93;;;;;;;11.99;28.23;99335.00;7059533;28;20204;-80
2023/04/04 16:00:54;;;;;;;5.17;3.40;;;;;;;12.36;27.33;99333.69;7062001;28;20337;-79